Station Historical Data
Daily Summary for April 1, 2017 Units:  Both    English   Metric
« Previous Day
Next Day »
Daily Weekly Monthly Yearly Custom
  High: Low: Average:
Temperature: 73.4 °F /  23 °C 51.4 °F /  10.8 °C 61.1 °F /  16.2 °C
Dew Point: 49.4 °F /  9.7 °C 42.9 °F /  6.1 °C 46.4 °F /  8 °C
Humidity: 84% 35% 61%
Wind Speed: 2.0mph /  3.2km/h - 0.3mph /  0.5km/h
Wind Gust: 8.0mph /  12.9km/h - -
Wind- - SSE
Pressure: 30.11 in /  1019.5 hPa 29.95 in /  1014.1 hPa -
Precipitation: 0.00 in /  0 mm    
Historical Graphs
 
 
Tabular Data for April 1, 2017
Time Temperature Dew Point Pressure Wind Wind Speed Wind Gust Humidity Rainfall Rate (Hourly) solar Conditions
00:00 55.2 °F /  12.9 °C 46.7 °F /  8.2 °C 29.95in /  1014.1hPa Calm     73% 0.00in /  0mm 0.0 W/m2 RA
00:15 55.0 °F /  12.8 °C 46.5 °F /  8.1 °C 29.95in /  1014.1hPa Calm     73% 0.00in /  0mm 0.0 W/m2 SCT
00:30 54.5 °F /  12.5 °C 46.4 °F /  8 °C 29.95in /  1014.1hPa Calm     74% 0.00in /  0mm 0.0 W/m2 SCT
00:45 54.0 °F /  12.2 °C 46.6 °F /  8.1 °C 29.95in /  1014.1hPa Calm     76% 0.00in /  0mm 0.0 W/m2 SCT
01:00 53.7 °F /  12.1 °C 46.4 °F /  8 °C 29.95in /  1014.1hPa Calm     76% 0.00in /  0mm 0.0 W/m2 SCT
01:15 53.6 °F /  12 °C 46.5 °F /  8.1 °C 29.95in /  1014.1hPa Calm     77% 0.00in /  0mm 0.0 W/m2 SCT
01:30 53.3 °F /  11.8 °C 46.6 °F /  8.1 °C 29.96in /  1014.4hPa Calm     78% 0.00in /  0mm 0.0 W/m2 SCT
01:45 53.0 °F /  11.7 °C 46.7 °F /  8.2 °C 29.96in /  1014.4hPa Calm     79% 0.00in /  0mm 0.0 W/m2 SCT
02:00 52.9 °F /  11.6 °C 46.5 °F /  8.1 °C 29.96in /  1014.4hPa Calm     79% 0.00in /  0mm 0.0 W/m2 SCT
02:15 52.8 °F /  11.6 °C 46.8 °F /  8.2 °C 29.97in /  1014.8hPa Calm     80% 0.00in /  0mm 0.0 W/m2 SCT
02:30 52.4 °F /  11.3 °C 46.4 °F /  8 °C 29.97in /  1014.8hPa Calm     80% 0.00in /  0mm 0.0 W/m2 SCT
02:45 52.4 °F /  11.3 °C 46.4 °F /  8 °C 29.97in /  1014.8hPa Calm     80% 0.00in /  0mm 0.0 W/m2 SCT
03:00 51.4 °F /  10.8 °C 45.4 °F /  7.4 °C 29.98in /  1015.1hPa Calm     80% 0.00in /  0mm 0.0 W/m2 SCT
03:15 51.4 °F /  10.8 °C 45.4 °F /  7.4 °C 29.98in /  1015.1hPa Calm     80% 0.00in /  0mm 0.0 W/m2 SCT
03:30 51.4 °F /  10.8 °C 45.4 °F /  7.4 °C 29.98in /  1015.1hPa Calm     80% 0.00in /  0mm 0.0 W/m2 SCT
03:45 51.4 °F /  10.8 °C 45.4 °F /  7.4 °C 29.97in /  1014.8hPa Calm     80% 0.00in /  0mm 0.0 W/m2 SCT
04:00 51.4 °F /  10.8 °C 45.4 °F /  7.4 °C 29.97in /  1014.8hPa Calm     80% 0.00in /  0mm 0.0 W/m2 SCT
04:15 51.4 °F /  10.8 °C 45.4 °F /  7.4 °C 29.98in /  1015.1hPa Calm     80% 0.00in /  0mm 0.0 W/m2 SCT
04:30 51.4 °F /  10.8 °C 45.4 °F /  7.4 °C 29.98in /  1015.1hPa Calm     80% 0.00in /  0mm 0.0 W/m2 SCT
04:45 51.4 °F /  10.8 °C 45.4 °F /  7.4 °C 29.98in /  1015.1hPa Calm     80% 0.00in /  0mm 0.0 W/m2 SCT
05:00 51.4 °F /  10.8 °C 45.4 °F /  7.4 °C 29.99in /  1015.5hPa Calm     80% 0.00in /  0mm 0.0 W/m2 SCT
05:15 51.4 °F /  10.8 °C 45.4 °F /  7.4 °C 29.99in /  1015.5hPa Calm     80% 0.00in /  0mm 0.0 W/m2 SCT
05:30 51.4 °F /  10.8 °C 45.4 °F /  7.4 °C 29.99in /  1015.5hPa Calm     80% 0.00in /  0mm 0.0 W/m2 SCT
05:45 51.4 °F /  10.8 °C 45.4 °F /  7.4 °C 30.00in /  1015.8hPa Calm     80% 0.00in /  0mm 0.0 W/m2 SCT
06:00 51.4 °F /  10.8 °C 45.4 °F /  7.4 °C 30.00in /  1015.8hPa Calm     80% 0.00in /  0mm 0.0 W/m2 SCT
06:15 51.4 °F /  10.8 °C 45.4 °F /  7.4 °C 30.00in /  1015.8hPa Calm     80% 0.00in /  0mm 0.0 W/m2 SCT
06:30 51.4 °F /  10.8 °C 45.4 °F /  7.4 °C 30.01in /  1016.1hPa Calm     80% 0.00in /  0mm 0.0 W/m2 SCT
06:45 51.4 °F /  10.8 °C 45.4 °F /  7.4 °C 30.02in /  1016.5hPa Calm     80% 0.00in /  0mm 0.0 W/m2 SCT
07:00 51.4 °F /  10.8 °C 45.4 °F /  7.4 °C 30.03in /  1016.8hPa Calm     80% 0.00in /  0mm 0.0 W/m2 SCT
07:15 51.4 °F /  10.8 °C 45.4 °F /  7.4 °C 30.03in /  1016.8hPa Calm     80% 0.00in /  0mm 0.0 W/m2 SCT
07:30 51.4 °F /  10.8 °C 45.4 °F /  7.4 °C 30.04in /  1017.2hPa Calm     80% 0.00in /  0mm 0.0 W/m2 SCT
07:45 51.4 °F /  10.8 °C 45.4 °F /  7.4 °C 30.05in /  1017.5hPa Calm     80% 0.00in /  0mm 0.0 W/m2 SCT
08:00 51.4 °F /  10.8 °C 45.4 °F /  7.4 °C 30.06in /  1017.8hPa Calm     80% 0.00in /  0mm 0.0 W/m2 SCT
08:15 52.0 °F /  11.1 °C 47.3 °F /  8.5 °C 30.06in /  1017.8hPa Calm   1.0mph /  1.6km/h 84% 0.00in /  0mm 0.0 W/m2 SCT
08:30 53.0 °F /  11.7 °C 47.6 °F /  8.7 °C 30.07in /  1018.2hPa Calm   1.0mph /  1.6km/h 82% 0.00in /  0mm 0.0 W/m2 SCT
08:45 53.6 °F /  12 °C 47.3 °F /  8.5 °C 30.07in /  1018.2hPa Calm   3.0mph /  4.8km/h 79% 0.00in /  0mm 0.0 W/m2 SCT
09:00 54.1 °F /  12.3 °C 47.4 °F /  8.6 °C 30.07in /  1018.2hPa Calm   5.0mph /  8km/h 78% 0.00in /  0mm 0.0 W/m2 SCT
09:15 54.7 °F /  12.6 °C 47.6 °F /  8.7 °C 30.08in /  1018.5hPa Calm   3.0mph /  4.8km/h 77% 0.00in /  0mm 0.0 W/m2 SCT
09:30 55.5 °F /  13.1 °C 47.7 °F /  8.7 °C 30.08in /  1018.5hPa West 1.0mph /  1.6km/h 5.0mph /  8km/h 75% 0.00in /  0mm 0.0 W/m2 SCT
10:00 57.9 °F /  14.4 °C 47.4 °F /  8.6 °C 30.08in /  1018.5hPa NNE 1.0mph /  1.6km/h 5.0mph /  8km/h 68% 0.00in /  0mm 0.0 W/m2 SCT
10:15 58.8 °F /  14.9 °C 47.9 °F /  8.8 °C 30.08in /  1018.5hPa SSW 1.0mph /  1.6km/h 6.0mph /  9.7km/h 67% 0.00in /  0mm 0.0 W/m2 SCT
10:30 60.3 °F /  15.7 °C 47.6 °F /  8.7 °C 30.08in /  1018.5hPa WSW 1.0mph /  1.6km/h 5.0mph /  8km/h 63% 0.00in /  0mm 0.0 W/m2 SCT
10:45 62.4 °F /  16.9 °C 48.7 °F /  9.3 °C 30.08in /  1018.5hPa Calm   5.0mph /  8km/h 61% 0.00in /  0mm 0.0 W/m2 SCT
11:00 63.7 °F /  17.6 °C 48.2 °F /  9 °C 30.08in /  1018.5hPa Calm   5.0mph /  8km/h 57% 0.00in /  0mm 0.0 W/m2 SCT
11:15 64.4 °F /  18 °C 48.8 °F /  9.3 °C 30.09in /  1018.8hPa Calm   8.0mph /  12.9km/h 57% 0.00in /  0mm 0.0 W/m2 SCT
11:30 64.4 °F /  18 °C 48.9 °F /  9.4 °C 30.09in /  1018.8hPa Calm   6.0mph /  9.7km/h 57% 0.00in /  0mm 0.0 W/m2 SCT
11:45 65.7 °F /  18.7 °C 47.6 °F /  8.7 °C 30.08in /  1018.5hPa SSW 1.0mph /  1.6km/h 6.0mph /  9.7km/h 52% 0.00in /  0mm 0.0 W/m2 SCT
12:00 66.5 °F /  19.2 °C 48.3 °F /  9.1 °C 30.08in /  1018.5hPa ENE 1.0mph /  1.6km/h 6.0mph /  9.7km/h 52% 0.00in /  0mm 0.0 W/m2 SCT
12:15 67.8 °F /  19.9 °C 49.0 °F /  9.4 °C 30.08in /  1018.5hPa Calm   6.0mph /  9.7km/h 51% 0.00in /  0mm 0.0 W/m2 SCT
12:30 69.5 °F /  20.8 °C 48.9 °F /  9.4 °C 30.08in /  1018.5hPa ESE 1.0mph /  1.6km/h 3.0mph /  4.8km/h 48% 0.00in /  0mm 0.0 W/m2 SCT
12:45 70.8 °F /  21.6 °C 49.0 °F /  9.4 °C 30.08in /  1018.5hPa NE 2.0mph /  3.2km/h 6.0mph /  9.7km/h 46% 0.00in /  0mm 0.0 W/m2 SCT
13:00 69.9 °F /  21.1 °C 47.6 °F /  8.7 °C 30.08in /  1018.5hPa East 1.0mph /  1.6km/h 6.0mph /  9.7km/h 45% 0.00in /  0mm 0.0 W/m2 SCT
13:15 71.8 °F /  22.1 °C 49.3 °F /  9.6 °C 30.08in /  1018.5hPa SW 1.0mph /  1.6km/h 5.0mph /  8km/h 45% 0.00in /  0mm 0.0 W/m2 SCT
13:30 71.4 °F /  21.9 °C 47.1 °F /  8.4 °C 30.07in /  1018.2hPa ENE 1.0mph /  1.6km/h 5.0mph /  8km/h 42% 0.00in /  0mm 0.0 W/m2 SCT
13:45 71.3 °F /  21.8 °C 47.0 °F /  8.3 °C 30.07in /  1018.2hPa ESE 1.0mph /  1.6km/h 7.0mph /  11.3km/h 42% 0.00in /  0mm 0.0 W/m2 SCT
14:00 73.3 °F /  22.9 °C 49.4 °F /  9.7 °C 30.07in /  1018.2hPa NNW 1.0mph /  1.6km/h 7.0mph /  11.3km/h 43% 0.00in /  0mm 0.0 W/m2 SCT
14:15 73.4 °F /  23 °C 48.2 °F /  9 °C 30.07in /  1018.2hPa Calm   6.0mph /  9.7km/h 41% 0.00in /  0mm 0.0 W/m2 SCT
14:30 73.2 °F /  22.9 °C 47.4 °F /  8.6 °C 30.07in /  1018.2hPa SW 1.0mph /  1.6km/h 5.0mph /  8km/h 40% 0.00in /  0mm 0.0 W/m2 SCT
14:45 72.0 °F /  22.2 °C 47.0 °F /  8.3 °C 30.06in /  1017.8hPa Calm   5.0mph /  8km/h 41% 0.00in /  0mm 0.0 W/m2 SCT
15:00 71.3 °F /  21.8 °C 47.6 °F /  8.7 °C 30.06in /  1017.8hPa Calm   8.0mph /  12.9km/h 43% 0.00in /  0mm 0.0 W/m2 SCT
15:15 72.2 °F /  22.3 °C 46.5 °F /  8.1 °C 30.06in /  1017.8hPa NE 1.0mph /  1.6km/h 6.0mph /  9.7km/h 40% 0.00in /  0mm 0.0 W/m2 SCT
15:30 71.8 °F /  22.1 °C 47.5 °F /  8.6 °C 30.05in /  1017.5hPa South 1.0mph /  1.6km/h 6.0mph /  9.7km/h 42% 0.00in /  0mm 0.0 W/m2 SCT
15:45 71.8 °F /  22.1 °C 46.8 °F /  8.2 °C 30.05in /  1017.5hPa SSW 1.0mph /  1.6km/h 8.0mph /  12.9km/h 41% 0.00in /  0mm 0.0 W/m2 SCT
16:00 72.0 °F /  22.2 °C 46.3 °F /  7.9 °C 30.05in /  1017.5hPa Calm   5.0mph /  8km/h 40% 0.00in /  0mm 0.0 W/m2 SCT
16:15 72.2 °F /  22.3 °C 45.2 °F /  7.3 °C 30.04in /  1017.2hPa SSW 2.0mph /  3.2km/h 6.0mph /  9.7km/h 38% 0.00in /  0mm 0.0 W/m2 SCT
16:30 72.6 °F /  22.6 °C 46.2 °F /  7.9 °C 30.04in /  1017.2hPa Calm   5.0mph /  8km/h 39% 0.00in /  0mm 0.0 W/m2 SCT
16:45 73.1 °F /  22.8 °C 45.3 °F /  7.4 °C 30.04in /  1017.2hPa East 2.0mph /  3.2km/h 7.0mph /  11.3km/h 37% 0.00in /  0mm 0.0 W/m2 SCT
17:00 72.9 °F /  22.7 °C 43.6 °F /  6.4 °C 30.04in /  1017.2hPa Calm   5.0mph /  8km/h 35% 0.00in /  0mm 0.0 W/m2 SCT
17:15 72.9 °F /  22.7 °C 44.3 °F /  6.8 °C 30.05in /  1017.5hPa Calm   5.0mph /  8km/h 36% 0.00in /  0mm 0.0 W/m2 SCT
17:30 72.4 °F /  22.4 °C 44.0 °F /  6.7 °C 30.05in /  1017.5hPa Calm   5.0mph /  8km/h 36% 0.00in /  0mm 0.0 W/m2 SCT
17:45 72.1 °F /  22.3 °C 42.9 °F /  6.1 °C 30.05in /  1017.5hPa Calm   5.0mph /  8km/h 35% 0.00in /  0mm 0.0 W/m2 SCT
18:00 71.7 °F /  22.1 °C 43.4 °F /  6.3 °C 30.05in /  1017.5hPa West 1.0mph /  1.6km/h 5.0mph /  8km/h 36% 0.00in /  0mm 0.0 W/m2 SCT
18:15 71.7 °F /  22.1 °C 44.0 °F /  6.7 °C 30.05in /  1017.5hPa Calm   5.0mph /  8km/h 37% 0.00in /  0mm 0.0 W/m2 SCT
18:30 71.2 °F /  21.8 °C 45.0 °F /  7.2 °C 30.06in /  1017.8hPa West 1.0mph /  1.6km/h 3.0mph /  4.8km/h 39% 0.00in /  0mm 0.0 W/m2 SCT
18:45 70.8 °F /  21.6 °C 44.6 °F /  7 °C 30.06in /  1017.8hPa Calm   3.0mph /  4.8km/h 39% 0.00in /  0mm 0.0 W/m2 SCT
19:00 70.0 °F /  21.1 °C 45.2 °F /  7.3 °C 30.06in /  1017.8hPa Calm   5.0mph /  8km/h 41% 0.00in /  0mm 0.0 W/m2 SCT
19:15 69.6 °F /  20.9 °C 44.8 °F /  7.1 °C 30.06in /  1017.8hPa SE 1.0mph /  1.6km/h 3.0mph /  4.8km/h 41% 0.00in /  0mm 0.0 W/m2 SCT
19:30 68.9 °F /  20.5 °C 46.1 °F /  7.8 °C 30.07in /  1018.2hPa Calm   2.0mph /  3.2km/h 44% 0.00in /  0mm 0.0 W/m2 SCT
19:45 67.6 °F /  19.8 °C 46.0 °F /  7.8 °C 30.07in /  1018.2hPa Calm   1.0mph /  1.6km/h 46% 0.00in /  0mm 0.0 W/m2 SCT
20:00 66.5 °F /  19.2 °C 45.6 °F /  7.6 °C 30.07in /  1018.2hPa Calm   1.0mph /  1.6km/h 47% 0.00in /  0mm 0.0 W/m2 SCT
20:15 65.6 °F /  18.7 °C 45.9 °F /  7.7 °C 30.07in /  1018.2hPa Calm     49% 0.00in /  0mm 0.0 W/m2 SCT
20:30 64.8 °F /  18.2 °C 45.7 °F /  7.6 °C 30.07in /  1018.2hPa Calm     50% 0.00in /  0mm 0.0 W/m2 SCT
20:45 64.0 °F /  17.8 °C 46.0 °F /  7.8 °C 30.07in /  1018.2hPa Calm   1.0mph /  1.6km/h 52% 0.00in /  0mm 0.0 W/m2 SCT
21:00 63.1 °F /  17.3 °C 45.7 °F /  7.6 °C 30.08in /  1018.5hPa Calm     53% 0.00in /  0mm 0.0 W/m2 SCT
21:15 62.2 °F /  16.8 °C 46.3 °F /  7.9 °C 30.08in /  1018.5hPa Calm     56% 0.00in /  0mm 0.0 W/m2 SCT
21:30 61.7 °F /  16.5 °C 46.3 °F /  7.9 °C 30.09in /  1018.8hPa Calm     57% 0.00in /  0mm 0.0 W/m2 SCT
21:45 61.7 °F /  16.5 °C 46.8 °F /  8.2 °C 30.09in /  1018.8hPa Calm   2.0mph /  3.2km/h 58% 0.00in /  0mm 0.0 W/m2 SCT
22:00 61.6 °F /  16.4 °C 46.7 °F /  8.2 °C 30.10in /  1019.2hPa Calm   1.0mph /  1.6km/h 58% 0.00in /  0mm 0.0 W/m2 SCT
22:15 60.6 °F /  15.9 °C 47.1 °F /  8.4 °C 30.10in /  1019.2hPa Calm   1.0mph /  1.6km/h 61% 0.00in /  0mm 0.0 W/m2 SCT
22:30 59.9 °F /  15.5 °C 46.4 °F /  8 °C 30.10in /  1019.2hPa Calm     61% 0.00in /  0mm 0.0 W/m2 SCT
22:45 59.5 °F /  15.3 °C 46.0 °F /  7.8 °C 30.11in /  1019.5hPa Calm     61% 0.00in /  0mm 0.0 W/m2 SCT
23:00 58.8 °F /  14.9 °C 46.2 °F /  7.9 °C 30.10in /  1019.2hPa Calm     63% 0.00in /  0mm 0.0 W/m2 SCT
23:15 58.4 °F /  14.7 °C 46.3 °F /  7.9 °C 30.10in /  1019.2hPa Calm     64% 0.00in /  0mm 0.0 W/m2 SCT
23:30 58.0 °F /  14.4 °C 45.9 °F /  7.7 °C 30.10in /  1019.2hPa Calm     64% 0.00in /  0mm 0.0 W/m2 SCT
23:45 57.6 °F /  14.2 °C 45.5 °F /  7.5 °C 30.10in /  1019.2hPa Calm   1.0mph /  1.6km/h 64% 0.00in /  0mm 0.0 W/m2 SCT
Piedmont Bend
Compliments of Weather Underground - 4 mb